Time;durP1;ratioP1;P1;durP2;ratioP2;P2;SDS_P1;SDS_P2;PMS_P1;PMS_P2;Temp;Humidity;BMP_temperature;BMP_pressure;BME280_temperature;BME280_humidity;BME280_pressure;Samples;Min_cycle;Max_cycle;Signal;HPM_P1;HPM_P2
2021/10/25 00:00:24;;;;;;;1.80;1.17;;;;;;;5.59;54.78;101702.44;1753372;81;21558;-68
2021/10/25 00:02:52;;;;;;;1.32;1.10;;;;;;;5.60;54.69;101702.86;1752636;82;21027;-68
2021/10/25 00:05:18;;;;;;;2.92;1.15;;;;;;;5.59;54.69;101708.53;1757725;81;22239;-68
2021/10/25 00:07:45;;;;;;;2.62;1.25;;;;;;;5.59;54.68;101705.91;1757885;80;20945;-69
2021/10/25 00:10:13;;;;;;;1.22;1.00;;;;;;;5.58;54.66;101712.52;1783543;80;21035;-70
2021/10/25 00:12:41;;;;;;;1.42;1.12;;;;;;;5.58;54.76;101709.91;1772934;80;21560;-70
2021/10/25 00:15:10;;;;;;;1.92;1.20;;;;;;;5.58;54.88;101709.45;1764322;80;21415;-68
2021/10/25 00:17:36;;;;;;;1.62;1.15;;;;;;;5.58;54.88;101710.76;1746908;81;21820;-70
2021/10/25 00:20:06;;;;;;;1.87;1.30;;;;;;;5.57;54.95;101712.98;1764432;81;21456;-70
2021/10/25 00:22:34;;;;;;;2.00;1.10;;;;;;;5.55;55.03;101714.81;1764729;81;21514;-69
2021/10/25 00:25:00;;;;;;;2.67;1.10;;;;;;;5.55;55.18;101711.34;1765405;81;21366;-69
2021/10/25 00:27:28;;;;;;;3.65;1.27;;;;;;;5.53;55.14;101713.17;1766592;81;20948;-70
2021/10/25 00:29:55;;;;;;;2.05;1.25;;;;;;;5.53;55.26;101713.17;1766241;81;22198;-69
2021/10/25 00:32:21;;;;;;;2.12;1.42;;;;;;;5.52;55.25;101714.08;1766013;81;21102;-70
2021/10/25 00:34:48;;;;;;;2.47;1.30;;;;;;;5.53;55.26;101711.86;1765552;81;20971;-69
2021/10/25 00:37:15;;;;;;;1.87;1.22;;;;;;;5.52;55.29;101715.39;1765329;81;21040;-70
2021/10/25 00:39:41;;;;;;;2.87;1.07;;;;;;;5.50;55.35;101713.26;1766333;81;21035;-70
2021/10/25 00:42:08;;;;;;;1.30;1.00;;;;;;;5.50;55.44;101722.00;1766335;80;22276;-70
2021/10/25 00:44:34;;;;;;;2.42;1.30;;;;;;;5.48;55.53;101714.63;1766122;81;21475;-69
2021/10/25 00:47:01;;;;;;;1.62;1.10;;;;;;;5.49;55.53;101716.80;1766232;81;20999;-69
2021/10/25 00:49:28;;;;;;;1.82;1.12;;;;;;;5.49;55.46;101716.80;1766108;81;20971;-70
2021/10/25 00:51:55;;;;;;;2.72;1.40;;;;;;;5.48;55.50;101715.09;1762864;81;21458;-70
2021/10/25 00:54:21;;;;;;;2.22;1.30;;;;;;;5.45;55.43;101712.98;1759730;81;22662;-70
2021/10/25 00:56:48;;;;;;;2.05;1.40;;;;;;;5.44;55.48;101713.05;1760016;81;20932;-70
2021/10/25 00:59:15;;;;;;;2.10;1.30;;;;;;;5.44;55.48;101716.98;1759706;81;21004;-70
2021/10/25 01:01:42;;;;;;;2.22;1.15;;;;;;;5.43;55.47;101713.51;1759908;81;21543;-70
2021/10/25 01:04:10;;;;;;;1.77;1.25;;;;;;;5.42;55.51;101718.34;1759714;81;20939;-68
2021/10/25 01:06:40;;;;;;;1.72;1.22;;;;;;;5.41;55.59;101721.88;1759805;81;22473;-69
2021/10/25 01:09:07;;;;;;;2.98;1.30;;;;;;;5.41;55.64;101713.17;1758691;81;21001;-68
2021/10/25 01:11:36;;;;;;;3.50;1.27;;;;;;;5.39;55.72;101716.28;1758276;81;21487;-69
2021/10/25 01:14:03;;;;;;;1.92;1.25;;;;;;;5.36;55.76;101718.56;1759215;81;21475;-68
2021/10/25 01:16:29;;;;;;;2.05;1.30;;;;;;;5.36;55.82;101720.33;1759772;81;21549;-68
2021/10/25 01:18:56;;;;;;;1.75;1.07;;;;;;;5.36;55.88;101717.70;1759655;81;22426;-69
2021/10/25 01:21:23;;;;;;;2.77;1.35;;;;;;;5.35;55.90;101725.17;1733895;81;21455;-68
2021/10/25 01:23:50;;;;;;;2.27;1.20;;;;;;;5.32;55.91;101726.14;1759784;81;21411;-69
2021/10/25 01:26:18;;;;;;;1.50;1.20;;;;;;;5.31;55.93;101727.52;1759674;81;21466;-70
2021/10/25 01:28:45;;;;;;;2.55;1.35;;;;;;;5.27;55.98;101724.59;1759842;81;21051;-70
2021/10/25 01:31:13;;;;;;;2.45;1.60;;;;;;;5.25;55.98;101732.96;1759929;81;21798;-70
2021/10/25 01:33:40;;;;;;;3.15;1.32;;;;;;;5.25;56.05;101730.34;1760200;80;20940;-70
2021/10/25 01:36:06;;;;;;;3.58;1.50;;;;;;;5.22;56.07;101739.17;1760214;81;20983;-70
2021/10/25 01:38:33;;;;;;;4.10;1.67;;;;;;;5.22;56.16;101731.77;1759889;80;21064;-70
2021/10/25 01:41:00;;;;;;;2.22;1.20;;;;;;;5.20;56.33;101738.80;1759915;81;20960;-70
2021/10/25 01:43:27;;;;;;;1.70;1.12;;;;;;;5.17;56.43;101739.31;1759122;81;21810;-69
2021/10/25 01:45:53;;;;;;;3.20;1.35;;;;;;;5.16;56.57;101744.61;1760178;81;20987;-68
2021/10/25 01:48:20;;;;;;;2.08;1.25;;;;;;;5.12;56.60;101750.42;1759716;81;21068;-69
2021/10/25 01:50:46;;;;;;;2.08;1.37;;;;;;;5.12;56.73;101747.80;1760227;81;20992;-70
2021/10/25 01:53:13;;;;;;;3.83;1.40;;;;;;;5.10;56.83;101750.05;1763628;81;21007;-69
2021/10/25 01:55:42;;;;;;;2.05;1.30;;;;;;;5.06;56.91;101749.31;1765529;81;21851;-69
2021/10/25 01:58:08;;;;;;;3.87;1.50;;;;;;;5.06;56.93;101748.47;1766332;81;21422;-69
2021/10/25 02:00:35;;;;;;;2.10;1.40;;;;;;;5.03;57.07;101759.91;1765595;81;21410;-69
2021/10/25 02:03:03;;;;;;;2.90;1.30;;;;;;;5.03;57.21;101761.67;1753130;81;21395;-70
2021/10/25 02:05:43;;;;;;;2.45;1.20;;;;;;;5.03;57.27;101763.84;1763746;81;21425;-68
2021/10/25 02:08:10;;;;;;;3.83;1.52;;;;;;;5.04;57.35;101761.61;1766260;81;22262;-69
2021/10/25 02:10:48;;;;;;;2.22;1.40;;;;;;;5.03;57.33;101762.52;1765938;81;20976;-68
2021/10/25 02:13:16;;;;;;;2.72;1.40;;;;;;;5.01;57.47;101765.63;1766370;81;20976;-69
2021/10/25 02:15:47;;;;;;;1.72;1.27;;;;;;;4.98;57.52;101768.36;1766399;81;21003;-69
2021/10/25 02:18:15;;;;;;;2.87;1.40;;;;;;;4.97;57.61;101771.89;1764352;80;21008;-70
2021/10/25 02:20:41;;;;;;;2.22;1.40;;;;;;;4.96;57.72;101771.48;1766584;81;22226;-69
2021/10/25 02:23:10;;;;;;;2.60;1.27;;;;;;;4.95;57.83;101772.86;1766299;81;21018;-69
2021/10/25 02:25:38;;;;;;;2.33;1.52;;;;;;;4.93;57.98;101776.84;1766504;81;20933;-68
2021/10/25 02:28:05;;;;;;;3.45;1.40;;;;;;;4.91;58.05;101781.70;1736485;81;21466;-69
2021/10/25 02:30:33;;;;;;;3.10;1.15;;;;;;;4.90;58.12;101780.84;1735873;81;21090;-70
2021/10/25 02:33:01;;;;;;;2.30;1.50;;;;;;;4.88;58.24;101780.05;1765777;81;23091;-69
2021/10/25 02:35:29;;;;;;;2.87;1.40;;;;;;;4.80;58.26;101777.68;1764640;81;21589;-70
2021/10/25 02:37:57;;;;;;;2.47;1.22;;;;;;;4.77;58.33;101778.25;1764662;81;21019;-69
2021/10/25 02:40:26;;;;;;;2.17;1.37;;;;;;;4.71;58.36;101782.36;1765108;81;21510;-69
2021/10/25 02:42:54;;;;;;;2.08;1.37;;;;;;;4.68;58.48;101783.78;1740534;81;21011;-69
2021/10/25 02:45:21;;;;;;;1.70;1.15;;;;;;;4.60;58.49;101785.33;1736218;82;21791;-69
2021/10/25 02:47:48;;;;;;;2.40;1.45;;;;;;;4.54;58.55;101789.02;1754378;80;20951;-69
2021/10/25 02:50:15;;;;;;;1.77;1.20;;;;;;;4.51;58.61;101794.32;1761277;80;21076;-69
2021/10/25 02:52:43;;;;;;;4.40;1.40;;;;;;;4.48;58.63;101790.50;1734322;81;21432;-68
2021/10/25 02:55:10;;;;;;;1.12;1.00;;;;;;;4.45;58.71;101796.30;1758414;81;20940;-68
2021/10/25 02:57:39;;;;;;;4.03;1.77;;;;;;;4.38;58.75;101793.00;1765555;81;21747;-70
2021/10/25 03:00:08;;;;;;;3.15;1.30;;;;;;;4.32;58.91;101795.80;1765773;81;21158;-69
2021/10/25 03:02:36;;;;;;;1.72;1.20;;;;;;;4.27;59.07;101795.10;1754309;81;21060;-70
2021/10/25 03:05:04;;;;;;;1.95;1.30;;;;;;;4.21;59.26;101800.50;1753128;81;20992;-69
2021/10/25 03:07:31;;;;;;;2.92;1.37;;;;;;;4.17;59.41;101809.36;1764348;81;20964;-68
2021/10/25 03:09:59;;;;;;;2.30;1.52;;;;;;;4.12;59.53;101811.23;1768706;79;21904;-68
2021/10/25 03:12:27;;;;;;;2.22;1.40;;;;;;;4.08;59.69;101809.63;1749093;80;21348;-68
2021/10/25 03:14:55;;;;;;;4.25;1.45;;;;;;;4.05;59.81;101812.31;1776699;79;21047;-68
2021/10/25 03:17:22;;;;;;;2.75;1.25;;;;;;;4.00;60.00;101818.55;1778817;80;21004;-69
2021/10/25 03:19:53;;;;;;;1.70;1.35;;;;;;;3.94;60.12;101818.70;1774495;79;21450;-69
2021/10/25 03:22:20;;;;;;;2.10;1.40;;;;;;;3.91;60.24;101820.12;1777247;79;22203;-69
2021/10/25 03:24:47;;;;;;;3.30;1.40;;;;;;;3.88;60.38;101818.91;1765835;79;20939;-70
2021/10/25 03:27:14;;;;;;;1.67;1.20;;;;;;;3.85;60.48;101827.27;1771744;79;20973;-69
2021/10/25 03:29:41;;;;;;;7.95;2.85;;;;;;;3.80;60.59;101826.10;1776757;79;21137;-70
2021/10/25 03:32:07;;;;;;;17.95;12.28;;;;;;;3.76;60.73;101824.91;1778643;79;21608;-69
2021/10/25 03:34:34;;;;;;;184.40;114.00;;;;;;;3.70;61.00;101828.11;1775051;79;22809;-70
2021/10/25 03:37:02;;;;;;;121.45;75.50;;;;;;;3.67;61.05;101829.97;1766548;79;21335;-69
2021/10/25 03:39:33;;;;;;;27.22;16.70;;;;;;;3.62;61.12;101833.14;1779466;80;20957;-69
2021/10/25 03:41:59;;;;;;;9.65;6.00;;;;;;;3.58;61.25;101832.83;1762522;79;21647;-70
2021/10/25 03:44:30;;;;;;;6.97;4.75;;;;;;;3.53;61.40;101837.30;1766856;79;20921;-69
2021/10/25 03:47:05;;;;;;;4.85;3.55;;;;;;;3.48;61.35;101836.59;1768096;79;21790;-69
2021/10/25 03:49:47;;;;;;;8.28;2.80;;;;;;;3.41;61.48;101837.19;1764893;81;21463;-69
2021/10/25 03:52:36;;;;;;;4.25;2.30;;;;;;;3.32;61.65;101838.28;1770409;79;20985;-68
2021/10/25 03:55:50;;;;;;;5.58;1.98;;;;;;;3.26;61.83;101850.18;1748122;81;21000;-68
2021/10/25 04:03:47;;;;;;;4.53;2.70;;;;;;;3.09;62.29;101858.91;1771618;79;21540;-68
2021/10/25 04:30:11;;;;;;;5.28;2.95;;;;;;;2.65;63.25;101879.06;1772001;79;38083;-73
2021/10/25 04:32:38;;;;;;;5.00;2.45;;;;;;;2.59;63.34;101883.11;1767402;79;20944;-71
2021/10/25 04:35:06;;;;;;;4.70;2.55;;;;;;;2.53;63.43;101883.27;1764126;79;21008;-68
2021/10/25 04:37:52;;;;;;;7.03;2.27;;;;;;;2.47;63.55;101886.84;1765707;79;20949;-68
2021/10/25 04:40:20;;;;;;;6.85;2.30;;;;;;;2.40;63.63;101893.52;1766277;81;22335;-68
2021/10/25 04:42:47;;;;;;;5.10;1.92;;;;;;;2.33;63.77;101890.21;1766290;79;20948;-69
2021/10/25 04:45:15;;;;;;;7.30;2.10;;;;;;;2.33;63.92;101891.96;1761138;79;21075;-68
2021/10/25 04:47:44;;;;;;;8.53;2.30;;;;;;;2.27;63.98;101892.48;1763582;79;21913;-68
2021/10/25 04:50:13;;;;;;;5.40;2.00;;;;;;;2.24;64.09;101900.83;1762842;79;21015;-67
2021/10/25 04:52:50;;;;;;;3.95;2.08;;;;;;;2.18;64.26;101901.80;1692912;84;21859;-71
2021/10/25 04:55:16;;;;;;;6.78;2.05;;;;;;;2.13;64.40;101904.96;1770287;80;21083;-67
2021/10/25 04:57:43;;;;;;;4.53;1.90;;;;;;;2.10;64.48;101908.05;1777948;79;20985;-68
2021/10/25 05:00:11;;;;;;;5.10;2.00;;;;;;;2.06;64.56;101911.17;1764546;80;21396;-69
2021/10/25 05:02:39;;;;;;;5.42;2.05;;;;;;;2.03;64.68;101918.17;1765991;79;20964;-69
2021/10/25 05:05:07;;;;;;;5.92;2.30;;;;;;;1.99;64.83;101918.24;1765022;79;21686;-69
2021/10/25 05:07:34;;;;;;;3.15;1.70;;;;;;;1.96;64.97;101914.84;1765103;79;21063;-69
2021/10/25 05:10:02;;;;;;;4.50;2.30;;;;;;;1.96;65.10;101916.16;1770269;80;20946;-69
2021/10/25 05:12:30;;;;;;;3.85;1.77;;;;;;;1.96;65.29;101920.92;1768435;79;21066;-69
2021/10/25 05:14:57;;;;;;;6.40;2.15;;;;;;;2.01;65.42;101923.42;1768972;79;21032;-68
2021/10/25 05:17:24;;;;;;;6.03;2.37;;;;;;;2.04;65.52;101925.99;1766462;79;22203;-69
2021/10/25 05:19:52;;;;;;;4.95;2.45;;;;;;;2.07;65.57;101936.34;1746852;82;21558;-72
2021/10/25 05:22:21;;;;;;;9.50;2.33;;;;;;;2.09;65.62;101937.16;1756963;79;21032;-67
2021/10/25 05:24:48;;;;;;;112.30;66.22;;;;;;;2.10;65.63;101936.72;1769964;79;20970;-68
2021/10/25 05:27:18;;;;;;;76.50;48.68;;;;;;;2.11;65.78;101945.81;1774666;79;21039;-68
2021/10/25 05:29:44;;;;;;;39.20;26.77;;;;;;;2.14;65.82;101941.00;1774251;79;21758;-68
2021/10/25 05:32:10;;;;;;;18.92;12.93;;;;;;;2.17;65.93;101943.09;1771293;79;20938;-67
2021/10/25 05:34:37;;;;;;;7.95;5.40;;;;;;;2.23;66.04;101955.16;1763614;79;20949;-68
2021/10/25 05:37:04;;;;;;;6.95;3.67;;;;;;;2.31;66.08;101958.45;1767550;79;21432;-68
2021/10/25 05:39:32;;;;;;;5.47;2.70;;;;;;;2.41;66.03;101953.47;1779173;79;21408;-68
2021/10/25 05:42:01;;;;;;;4.37;2.37;;;;;;;2.50;65.96;101961.55;1769257;79;22825;-69
2021/10/25 05:44:27;;;;;;;4.25;2.60;;;;;;;2.59;65.94;101966.58;1768261;79;21067;-68
2021/10/25 05:46:54;;;;;;;4.10;2.35;;;;;;;2.69;65.94;101960.27;1760706;79;21471;-67
2021/10/25 05:49:20;;;;;;;5.28;3.35;;;;;;;2.76;65.81;101965.78;1765074;79;22118;-67
2021/10/25 05:51:47;;;;;;;7.65;3.77;;;;;;;2.81;65.69;101963.94;1791584;79;21019;-67
2021/10/25 05:54:14;;;;;;;5.55;3.62;;;;;;;2.90;65.65;101969.86;1763579;81;21771;-69
2021/10/25 05:56:43;;;;;;;5.95;3.55;;;;;;;2.96;65.54;101968.40;1764290;81;22095;-71
2021/10/25 05:59:10;;;;;;;6.50;3.15;;;;;;;3.02;65.42;101973.48;1764776;81;21470;-67
2021/10/25 06:01:44;;;;;;;4.05;2.65;;;;;;;3.09;65.32;101972.47;1764598;81;21027;-69
2021/10/25 06:04:21;;;;;;;4.65;2.60;;;;;;;3.15;65.23;101972.30;1762961;81;21022;-70
2021/10/25 06:06:47;;;;;;;5.30;2.92;;;;;;;3.21;65.11;101974.79;1768310;79;21847;-71
2021/10/25 06:09:15;;;;;;;3.67;2.60;;;;;;;3.25;65.00;101976.42;1764045;81;21043;-70
2021/10/25 06:11:42;;;;;;;4.05;2.72;;;;;;;3.33;64.97;101977.10;1748731;81;21012;-69
2021/10/25 06:14:11;;;;;;;5.22;2.90;;;;;;;3.37;64.74;101984.41;1764424;81;21028;-68
2021/10/25 06:16:47;;;;;;;3.60;2.30;;;;;;;3.42;64.71;101977.33;1746881;81;21041;-69
2021/10/25 06:19:11;;;;;;;3.05;2.37;;;;;;;3.50;64.60;101984.99;1754797;81;22804;-70
2021/10/25 06:21:38;;;;;;;4.30;1.98;;;;;;;3.54;64.33;101987.48;1765061;81;21126;-70
2021/10/25 06:24:05;;;;;;;6.15;2.22;;;;;;;3.61;64.22;101987.74;1765043;81;21031;-68
2021/10/25 06:26:44;;;;;;;2.47;1.70;;;;;;;3.69;64.14;101992.78;1761846;79;21015;-69
2021/10/25 06:29:12;;;;;;;4.95;2.20;;;;;;;3.76;63.77;101993.02;1765129;81;21102;-69
2021/10/25 06:31:38;;;;;;;3.70;2.25;;;;;;;3.81;63.63;101996.39;1758364;81;21839;-68
2021/10/25 06:34:20;;;;;;;4.37;2.15;;;;;;;3.86;63.53;101993.22;1774555;80;21329;-68
2021/10/25 06:36:48;;;;;;;3.45;2.45;;;;;;;3.95;63.42;101999.94;1774443;80;20997;-69
2021/10/25 06:39:23;;;;;;;2.65;1.90;;;;;;;4.01;63.24;102000.65;1772715;80;21015;-67
2021/10/25 06:41:50;;;;;;;3.50;2.00;;;;;;;4.10;62.99;101996.94;1765001;81;21529;-66
2021/10/25 06:44:22;;;;;;;3.30;2.02;;;;;;;4.17;62.49;102001.11;1789243;79;22616;-66
2021/10/25 06:46:48;;;;;;;4.80;2.35;;;;;;;4.18;61.80;101995.44;1788618;79;20983;-66
2021/10/25 06:49:17;;;;;;;2.70;1.87;;;;;;;4.22;61.77;101995.74;1764845;81;21070;-69
2021/10/25 06:51:45;;;;;;;5.12;2.20;;;;;;;4.29;61.54;101992.92;1764996;81;21027;-68
2021/10/25 06:54:13;;;;;;;2.72;2.05;;;;;;;4.40;61.35;101993.08;1765005;81;21105;-68
2021/10/25 06:56:40;;;;;;;4.08;2.00;;;;;;;4.47;61.02;101994.17;1764177;81;22910;-67
2021/10/25 06:59:06;;;;;;;2.50;1.80;;;;;;;4.57;60.77;101999.55;1764982;81;21521;-69
2021/10/25 07:01:36;;;;;;;3.33;1.80;;;;;;;4.65;60.19;101999.80;1764575;81;21079;-68
2021/10/25 07:04:04;;;;;;;3.70;1.80;;;;;;;4.64;59.67;102002.01;1770788;80;21290;-69
2021/10/25 07:06:34;;;;;;;3.35;1.72;;;;;;;4.69;59.66;102007.50;1762880;81;21039;-70
2021/10/25 07:09:03;;;;;;;2.75;1.87;;;;;;;4.76;58.72;102005.57;1733900;81;21841;-67
2021/10/25 07:11:30;;;;;;;3.15;2.00;;;;;;;4.71;58.63;102003.52;1764131;81;21553;-69
2021/10/25 07:13:57;;;;;;;2.55;1.90;;;;;;;4.70;58.45;102003.13;1764604;81;21581;-70
2021/10/25 07:16:39;;;;;;;3.25;2.00;;;;;;;4.72;58.39;102003.92;1764625;81;22168;-70
2021/10/25 07:21:58;;;;;;;4.17;2.60;;;;;;;4.75;58.31;102012.56;1748923;81;21942;-69
2021/10/25 08:00:30;;;;;;;5.28;2.80;;;;;;;5.44;55.96;102002.14;1737821;80;21031;-66
2021/10/25 08:13:32;;;;;;;4.28;2.75;;;;;;;5.78;55.41;102008.03;1749293;80;21024;-67
2021/10/25 08:15:57;;;;;;;4.08;2.45;;;;;;;5.82;55.33;102014.91;1734478;81;22509;-66
2021/10/25 08:18:42;;;;;;;4.42;2.50;;;;;;;5.87;55.09;102013.83;1734540;81;21043;-67
2021/10/25 08:20:52;;;;;;;4.65;2.42;;;;;;;5.88;54.66;102017.31;1727737;81;21245;-67
2021/10/25 08:23:19;;;;;;;2.70;1.90;;;;;;;5.91;54.52;102019.88;1735960;81;21011;-68
2021/10/25 08:25:46;;;;;;;3.60;2.30;;;;;;;5.94;54.25;102023.25;1735180;82;21051;-67
2021/10/25 08:28:14;;;;;;;3.95;2.33;;;;;;;5.95;54.19;102021.48;1736641;82;22454;-67
2021/10/25 08:30:41;;;;;;;3.35;2.00;;;;;;;6.02;53.99;102012.50;1736570;82;20996;-68
2021/10/25 08:41:21;;;;;;;5.25;2.30;;;;;;;6.17;52.69;102018.97;1737127;82;21807;-65
2021/10/25 08:43:50;;;;;;;2.22;1.80;;;;;;;6.23;52.58;102025.33;1737399;82;21420;-65
2021/10/25 08:46:18;;;;;;;3.00;2.00;;;;;;;6.27;52.84;102022.56;1723450;82;20997;-67
2021/10/25 08:48:47;;;;;;;2.35;1.62;;;;;;;6.43;53.08;102028.55;1732369;82;21052;-66
2021/10/25 08:51:17;;;;;;;2.87;1.80;;;;;;;6.63;52.67;102026.06;1737312;82;21004;-67
2021/10/25 08:53:44;;;;;;;2.40;1.70;;;;;;;6.76;51.90;102029.12;1737342;82;21866;-67
2021/10/25 08:56:17;;;;;;;2.05;1.52;;;;;;;6.87;51.79;102025.63;1745845;79;21388;-67
2021/10/25 08:58:49;;;;;;;2.45;1.52;;;;;;;7.01;51.29;102023.78;1745277;82;20965;-66
2021/10/25 09:01:31;;;;;;;2.30;1.60;;;;;;;7.04;50.96;102022.34;1725969;81;21498;-67
2021/10/25 09:04:16;;;;;;;2.27;1.50;;;;;;;7.16;50.89;102020.58;1742180;81;21004;-68
2021/10/25 09:06:57;;;;;;;1.98;1.50;;;;;;;7.28;49.76;102014.83;1765763;81;22278;-64
2021/10/25 09:09:29;;;;;;;3.15;1.77;;;;;;;7.30;49.74;102016.08;1766167;81;20948;-67
2021/10/25 09:12:11;;;;;;;2.20;1.50;;;;;;;7.32;49.29;102018.18;1766198;81;20940;-67
2021/10/25 09:14:57;;;;;;;2.87;1.67;;;;;;;7.27;48.95;102010.95;1766232;81;20972;-67
2021/10/25 09:17:25;;;;;;;2.65;1.62;;;;;;;7.20;49.12;102016.05;1764330;80;21562;-68
2021/10/25 09:19:59;;;;;;;4.25;1.62;;;;;;;7.20;49.00;102014.73;1754554;81;21924;-67
2021/10/25 09:22:26;;;;;;;3.42;1.70;;;;;;;7.28;49.05;102008.72;1766021;80;21683;-69
2021/10/25 09:24:55;;;;;;;2.70;1.90;;;;;;;7.44;49.08;102005.89;1763432;81;21557;-68
2021/10/25 09:27:32;;;;;;;2.35;1.57;;;;;;;7.61;48.74;102015.70;1743027;81;21056;-67
2021/10/25 09:30:07;;;;;;;3.08;1.70;;;;;;;7.78;48.54;102011.92;1743137;81;21042;-68
2021/10/25 09:32:35;;;;;;;2.05;1.20;;;;;;;7.98;48.04;102006.67;1763927;81;21830;-69
2021/10/25 09:35:28;;;;;;;3.25;1.77;;;;;;;8.19;47.23;102004.03;1763571;80;21071;-69
2021/10/25 09:38:00;;;;;;;3.02;1.62;;;;;;;8.37;46.72;102003.73;1739660;81;21047;-67
2021/10/25 09:40:47;;;;;;;2.52;1.70;;;;;;;8.46;45.92;102005.49;1767647;80;21031;-68
2021/10/25 09:43:19;;;;;;;4.05;1.57;;;;;;;8.46;45.98;102007.27;1763684;81;21007;-67
2021/10/25 09:51:13;;;;;;;3.10;1.50;;;;;;;8.84;45.60;101994.53;1764061;81;21067;-69
2021/10/25 09:53:43;;;;;;;2.77;1.37;;;;;;;9.02;45.24;101998.09;1763812;81;21012;-70
2021/10/25 09:56:11;;;;;;;2.25;1.50;;;;;;;9.16;44.29;101995.64;1744426;81;20944;-68
2021/10/25 09:58:46;;;;;;;3.58;1.70;;;;;;;9.25;43.99;101991.72;1764547;80;21860;-70
2021/10/25 10:01:11;;;;;;;2.50;1.57;;;;;;;9.34;43.74;101999.19;1765265;81;21094;-70
2021/10/25 10:03:40;;;;;;;2.55;1.55;;;;;;;9.39;43.64;101991.07;1766058;81;20956;-68
2021/10/25 10:06:08;;;;;;;1.90;1.45;;;;;;;9.53;43.83;101989.91;1764815;81;20968;-66
2021/10/25 10:08:38;;;;;;;3.67;1.45;;;;;;;9.74;43.22;101989.31;1766309;81;21048;-68
2021/10/25 10:11:07;;;;;;;3.20;1.40;;;;;;;9.82;42.11;101984.97;1720548;82;21858;-67
2021/10/25 10:13:35;;;;;;;3.95;1.20;;;;;;;9.85;42.57;101988.33;1759510;81;20980;-67
2021/10/25 10:16:06;;;;;;;1.80;1.25;;;;;;;9.87;41.63;101995.70;1765022;81;21019;-68
2021/10/25 10:18:34;;;;;;;2.80;1.30;;;;;;;9.85;41.71;101987.48;1770069;80;21043;-70
2021/10/25 10:21:06;;;;;;;3.65;1.25;;;;;;;9.94;42.09;101990.94;1763126;80;21095;-72
2021/10/25 10:23:33;;;;;;;2.25;1.25;;;;;;;10.14;41.54;101993.44;1766307;80;22885;-69
2021/10/25 10:26:03;;;;;;;4.72;1.20;;;;;;;10.28;41.88;101988.31;1766590;80;20925;-73
2021/10/25 10:28:37;;;;;;;3.15;1.45;;;;;;;10.50;41.58;101988.02;1780362;80;21069;-71
2021/10/25 10:31:17;;;;;;;3.37;1.30;;;;;;;10.65;41.00;101985.50;1759344;80;20975;-69
2021/10/25 10:33:52;;;;;;;2.42;1.40;;;;;;;10.75;40.71;101990.20;1760442;81;20992;-68
2021/10/25 10:36:30;;;;;;;1.87;1.15;;;;;;;10.81;39.74;101982.42;1766658;81;21872;-69
2021/10/25 10:39:11;;;;;;;2.45;1.30;;;;;;;10.76;39.58;101978.70;1762314;81;20952;-69
2021/10/25 10:42:01;;;;;;;1.85;1.10;;;;;;;10.76;39.58;101985.77;1765725;81;20996;-68
2021/10/25 10:44:58;;;;;;;3.67;1.30;;;;;;;10.75;39.09;101982.28;1765872;81;21430;-67
2021/10/25 10:47:20;;;;;;;3.12;1.20;;;;;;;10.69;39.97;101981.75;1734352;81;20964;-70
2021/10/25 10:49:51;;;;;;;2.02;1.30;;;;;;;10.62;39.72;101977.75;1764684;81;21830;-68
2021/10/25 10:55:09;;;;;;;2.60;1.37;;;;;;;10.60;39.61;101973.84;1764647;81;21447;-70
2021/10/25 11:00:30;;;;;;;2.55;1.35;;;;;;;10.93;38.55;101964.55;1759786;81;21447;-70
2021/10/25 11:03:10;;;;;;;4.17;1.60;;;;;;;11.03;39.32;101967.55;1759898;81;21852;-71
2021/10/25 11:06:03;;;;;;;3.67;1.65;;;;;;;11.20;38.54;101970.09;1759777;81;21478;-72
2021/10/25 11:08:42;;;;;;;1.45;1.10;;;;;;;11.27;38.00;101962.17;1760228;81;20951;-69
2021/10/25 11:11:13;;;;;;;3.83;1.50;;;;;;;11.29;37.95;101954.14;1759825;81;21443;-69
2021/10/25 11:13:48;;;;;;;11.25;2.58;;;;;;;11.24;37.83;101959.72;1760131;81;21454;-69
2021/10/25 11:16:27;;;;;;;4.67;2.27;;;;;;;11.25;37.70;101961.89;1760322;81;21812;-69
2021/10/25 11:18:53;;;;;;;3.22;1.77;;;;;;;11.18;37.61;101960.90;1759340;81;20948;-69
2021/10/25 11:21:41;;;;;;;2.80;1.30;;;;;;;11.30;37.97;101952.77;1759747;81;20957;-68
2021/10/25 11:24:11;;;;;;;3.98;1.40;;;;;;;11.40;37.04;101956.58;1759847;81;20972;-69
2021/10/25 11:26:52;;;;;;;2.08;1.47;;;;;;;11.56;38.37;101955.20;1734560;81;20964;-69
2021/10/25 11:29:26;;;;;;;2.17;1.20;;;;;;;11.92;38.08;101954.02;1759462;81;21857;-68
2021/10/25 11:32:09;;;;;;;3.12;1.72;;;;;;;12.24;37.98;101945.43;1760115;81;21027;-69
2021/10/25 11:34:41;;;;;;;2.42;1.60;;;;;;;12.32;36.16;101947.98;1760020;81;25400;-68
2021/10/25 11:37:23;;;;;;;4.58;1.47;;;;;;;12.35;36.11;101943.44;1759057;81;21004;-68
2021/10/25 11:40:02;;;;;;;3.47;1.42;;;;;;;12.27;36.07;101947.44;1756791;81;20985;-69
2021/10/25 11:42:32;;;;;;;2.35;1.50;;;;;;;12.30;36.87;101940.62;1757302;81;21868;-69
2021/10/25 11:45:04;;;;;;;1.98;1.40;;;;;;;12.27;35.58;101941.29;1760039;81;20924;-66
2021/10/25 11:47:35;;;;;;;;;;;;;;;12.28;35.51;101940.34;1743256;82;20946;-68
2021/10/25 11:50:09;;;;;;;1.85;1.47;;;;;;;12.40;36.04;101938.72;1739911;82;20547;-69
2021/10/25 11:52:43;;;;;;;2.22;1.50;;;;;;;12.68;36.03;101931.22;1740739;82;21009;-69
2021/10/25 11:55:12;;;;;;;3.55;1.50;;;;;;;12.80;34.66;101932.61;1759769;81;21815;-69
2021/10/25 11:57:54;;;;;;;11.57;4.92;;;;;;;12.59;34.28;101928.67;1745679;82;21404;-69
2021/10/25 12:00:22;;;;;;;4.45;2.33;;;;;;;12.44;35.30;101935.77;1745700;82;21012;-68
2021/10/25 12:02:53;;;;;;;2.37;1.37;;;;;;;12.52;35.21;101922.05;1744696;82;21005;-68
2021/10/25 12:05:25;;;;;;;2.22;1.27;;;;;;;12.72;35.76;101931.39;1715631;83;21476;-69
2021/10/25 12:07:54;;;;;;;2.50;1.32;;;;;;;13.06;35.45;101925.63;1730335;82;22646;-68
2021/10/25 12:10:23;;;;;;;2.25;1.32;;;;;;;13.32;33.79;101933.25;1730131;83;20961;-68
2021/10/25 12:12:54;;;;;;;1.72;1.35;;;;;;;13.52;34.66;101927.94;1743578;82;21363;-69
2021/10/25 12:15:23;;;;;;;3.52;1.37;;;;;;;13.79;33.87;101923.87;1745616;82;20968;-69
2021/10/25 12:17:50;;;;;;;2.77;1.45;;;;;;;13.94;33.51;101925.97;1745980;82;20940;-69
2021/10/25 12:20:27;;;;;;;1.87;1.30;;;;;;;13.72;32.08;101931.42;1745853;82;22569;-69
2021/10/25 12:23:02;;;;;;;2.27;1.30;;;;;;;13.19;32.73;101925.70;1745660;82;21023;-69
2021/10/25 12:25:30;;;;;;;1.90;1.25;;;;;;;12.86;33.70;101932.70;1756662;81;20932;-69
2021/10/25 12:28:20;;;;;;;2.87;1.40;;;;;;;12.91;34.73;101934.56;1751616;81;20976;-69
2021/10/25 12:30:53;;;;;;;3.22;1.45;;;;;;;13.32;33.77;101930.59;1716010;83;21462;-69
2021/10/25 12:33:21;;;;;;;;;;;;;;;13.59;33.93;101931.86;1717208;83;21790;-69
2021/10/25 12:35:48;;;;;;;2.33;1.47;;;;;;;13.97;33.29;101925.75;1716088;83;20137;-69
2021/10/25 12:38:18;;;;;;;2.37;1.50;;;;;;;14.31;33.06;101922.93;1716318;83;20992;-69
2021/10/25 12:40:53;;;;;;;4.08;1.35;;;;;;;14.54;32.68;101920.84;1701241;84;21040;-69
2021/10/25 12:43:21;;;;;;;2.70;1.45;;;;;;;14.83;32.41;101919.22;1756166;81;20953;-69
2021/10/25 12:46:02;;;;;;;2.15;1.37;;;;;;;15.04;31.60;101924.77;1761321;81;21822;-69
2021/10/25 12:48:42;;;;;;;1.92;1.30;;;;;;;14.84;30.53;101919.59;1729120;83;20997;-69
2021/10/25 12:51:09;;;;;;;2.95;1.40;;;;;;;14.62;31.82;101922.95;1760577;81;21359;-69
2021/10/25 12:53:39;;;;;;;1.77;1.37;;;;;;;14.70;31.42;101918.42;1728023;82;21063;-69
2021/10/25 12:56:05;;;;;;;3.12;1.50;;;;;;;14.65;31.47;101910.75;1728829;81;21011;-73
2021/10/25 12:58:32;;;;;;;5.67;1.50;;;;;;;14.59;31.13;101910.73;1719167;82;21821;-67
2021/10/25 13:01:10;;;;;;;2.47;1.50;;;;;;;14.52;31.75;101911.28;1735993;82;21027;-69
2021/10/25 13:03:37;;;;;;;2.62;1.55;;;;;;;14.70;31.73;101912.62;1725385;82;21485;-69
2021/10/25 13:06:09;;;;;;;2.40;1.40;;;;;;;14.95;31.25;101910.81;1708276;83;21520;-71
2021/10/25 13:08:37;;;;;;;2.33;1.47;;;;;;;14.88;30.79;101911.28;1708356;84;21575;-70
2021/10/25 13:11:05;;;;;;;2.87;1.50;;;;;;;14.93;30.87;101920.24;1708206;83;22443;-69
2021/10/25 13:13:33;;;;;;;4.37;1.40;;;;;;;15.03;30.68;101909.30;1708230;83;21039;-70
2021/10/25 13:16:02;;;;;;;1.50;1.20;;;;;;;15.03;30.89;101906.63;1708176;83;21032;-69
2021/10/25 13:18:29;;;;;;;2.45;1.52;;;;;;;15.06;30.40;101906.42;1708102;84;21047;-69
2021/10/25 13:20:57;;;;;;;3.37;1.40;;;;;;;14.86;29.88;101906.56;1735319;82;20996;-68
2021/10/25 13:23:24;;;;;;;2.30;1.37;;;;;;;14.59;30.20;101906.75;1751935;81;22558;-68